sensor_id;sensor_type;location;lat;lon;timestamp;P1;durP1;ratioP1;P2;durP2;ratioP2
15645;SDS011;7922;43.622;1.476;2022-12-11T00:02:01;42.13;;;29.63;;
15645;SDS011;7922;43.622;1.476;2022-12-11T00:04:27;47.00;;;32.07;;
15645;SDS011;7922;43.622;1.476;2022-12-11T00:06:52;43.90;;;30.13;;
15645;SDS011;7922;43.622;1.476;2022-12-11T00:09:18;45.70;;;31.13;;
15645;SDS011;7922;43.622;1.476;2022-12-11T00:11:44;47.13;;;32.43;;
15645;SDS011;7922;43.622;1.476;2022-12-11T00:14:10;47.40;;;32.77;;
15645;SDS011;7922;43.622;1.476;2022-12-11T00:16:35;45.03;;;32.63;;
15645;SDS011;7922;43.622;1.476;2022-12-11T00:19:00;45.40;;;31.43;;
15645;SDS011;7922;43.622;1.476;2022-12-11T00:21:26;40.90;;;30.40;;
15645;SDS011;7922;43.622;1.476;2022-12-11T00:23:51;47.17;;;31.40;;
15645;SDS011;7922;43.622;1.476;2022-12-11T00:26:16;40.80;;;29.37;;
15645;SDS011;7922;43.622;1.476;2022-12-11T00:28:42;43.80;;;29.63;;
15645;SDS011;7922;43.622;1.476;2022-12-11T00:31:10;44.90;;;30.47;;
15645;SDS011;7922;43.622;1.476;2022-12-11T00:33:37;41.13;;;29.10;;
15645;SDS011;7922;43.622;1.476;2022-12-11T00:36:03;43.73;;;28.87;;
15645;SDS011;7922;43.622;1.476;2022-12-11T00:38:28;43.50;;;30.60;;
15645;SDS011;7922;43.622;1.476;2022-12-11T00:40:57;41.00;;;29.17;;
15645;SDS011;7922;43.622;1.476;2022-12-11T00:43:23;38.63;;;28.10;;
15645;SDS011;7922;43.622;1.476;2022-12-11T00:45:48;38.83;;;28.83;;
15645;SDS011;7922;43.622;1.476;2022-12-11T00:48:14;39.97;;;27.13;;
15645;SDS011;7922;43.622;1.476;2022-12-11T00:50:39;37.93;;;28.37;;
15645;SDS011;7922;43.622;1.476;2022-12-11T00:53:04;40.10;;;27.57;;
15645;SDS011;7922;43.622;1.476;2022-12-11T00:55:30;40.53;;;27.07;;
15645;SDS011;7922;43.622;1.476;2022-12-11T00:57:56;36.90;;;28.60;;
15645;SDS011;7922;43.622;1.476;2022-12-11T01:00:22;39.03;;;27.50;;
15645;SDS011;7922;43.622;1.476;2022-12-11T01:02:47;37.83;;;27.53;;
15645;SDS011;7922;43.622;1.476;2022-12-11T01:05:13;42.37;;;27.40;;
15645;SDS011;7922;43.622;1.476;2022-12-11T01:07:38;38.43;;;25.93;;
15645;SDS011;7922;43.622;1.476;2022-12-11T01:10:04;36.17;;;26.73;;
15645;SDS011;7922;43.622;1.476;2022-12-11T01:12:29;37.07;;;27.27;;
15645;SDS011;7922;43.622;1.476;2022-12-11T01:14:54;38.70;;;27.23;;
15645;SDS011;7922;43.622;1.476;2022-12-11T01:17:20;38.87;;;26.33;;
15645;SDS011;7922;43.622;1.476;2022-12-11T01:19:45;36.63;;;26.80;;
15645;SDS011;7922;43.622;1.476;2022-12-11T01:22:10;40.93;;;27.63;;
15645;SDS011;7922;43.622;1.476;2022-12-11T01:24:36;42.13;;;28.73;;
15645;SDS011;7922;43.622;1.476;2022-12-11T01:27:01;34.53;;;25.43;;
15645;SDS011;7922;43.622;1.476;2022-12-11T01:29:27;39.80;;;28.37;;
15645;SDS011;7922;43.622;1.476;2022-12-11T01:31:52;42.00;;;28.17;;
15645;SDS011;7922;43.622;1.476;2022-12-11T01:34:17;42.07;;;28.03;;
15645;SDS011;7922;43.622;1.476;2022-12-11T01:36:42;42.87;;;29.40;;
15645;SDS011;7922;43.622;1.476;2022-12-11T01:39:08;42.77;;;30.13;;
15645;SDS011;7922;43.622;1.476;2022-12-11T01:41:33;40.07;;;29.03;;
15645;SDS011;7922;43.622;1.476;2022-12-11T01:46:25;38.80;;;27.97;;
15645;SDS011;7922;43.622;1.476;2022-12-11T01:48:51;43.53;;;30.47;;
15645;SDS011;7922;43.622;1.476;2022-12-11T01:51:17;40.20;;;28.10;;
15645;SDS011;7922;43.622;1.476;2022-12-11T01:53:44;43.13;;;28.53;;
15645;SDS011;7922;43.622;1.476;2022-12-11T01:56:11;40.23;;;27.33;;
15645;SDS011;7922;43.622;1.476;2022-12-11T01:58:45;35.77;;;26.87;;
15645;SDS011;7922;43.622;1.476;2022-12-11T02:01:15;40.57;;;28.10;;
15645;SDS011;7922;43.622;1.476;2022-12-11T02:03:44;36.90;;;26.70;;
15645;SDS011;7922;43.622;1.476;2022-12-11T02:09:06;37.23;;;26.60;;
15645;SDS011;7922;43.622;1.476;2022-12-11T02:17:13;37.67;;;25.67;;
15645;SDS011;7922;43.622;1.476;2022-12-11T02:19:48;38.07;;;25.67;;
15645;SDS011;7922;43.622;1.476;2022-12-11T02:22:27;34.63;;;23.87;;
15645;SDS011;7922;43.622;1.476;2022-12-11T02:25:09;32.97;;;25.10;;
15645;SDS011;7922;43.622;1.476;2022-12-11T02:27:41;34.83;;;23.70;;
15645;SDS011;7922;43.622;1.476;2022-12-11T02:30:14;33.23;;;22.57;;
15645;SDS011;7922;43.622;1.476;2022-12-11T02:35:18;32.33;;;23.70;;
15645;SDS011;7922;43.622;1.476;2022-12-11T02:37:47;32.50;;;23.23;;
15645;SDS011;7922;43.622;1.476;2022-12-11T02:40:16;33.67;;;24.00;;
15645;SDS011;7922;43.622;1.476;2022-12-11T02:42:44;32.40;;;22.67;;
15645;SDS011;7922;43.622;1.476;2022-12-11T02:45:10;33.47;;;23.40;;
15645;SDS011;7922;43.622;1.476;2022-12-11T02:47:36;31.63;;;23.97;;
15645;SDS011;7922;43.622;1.476;2022-12-11T02:50:02;33.37;;;22.90;;
15645;SDS011;7922;43.622;1.476;2022-12-11T02:52:32;34.57;;;23.37;;
15645;SDS011;7922;43.622;1.476;2022-12-11T02:54:58;29.33;;;22.47;;
15645;SDS011;7922;43.622;1.476;2022-12-11T03:00:11;30.97;;;22.23;;
15645;SDS011;7922;43.622;1.476;2022-12-11T03:02:37;30.07;;;22.23;;
15645;SDS011;7922;43.622;1.476;2022-12-11T03:05:03;32.20;;;22.77;;
15645;SDS011;7922;43.622;1.476;2022-12-11T03:07:30;29.17;;;22.10;;
15645;SDS011;7922;43.622;1.476;2022-12-11T03:09:58;35.87;;;22.43;;
15645;SDS011;7922;43.622;1.476;2022-12-11T03:12:28;34.00;;;22.97;;
15645;SDS011;7922;43.622;1.476;2022-12-11T03:14:56;33.17;;;23.30;;
15645;SDS011;7922;43.622;1.476;2022-12-11T03:17:24;30.57;;;23.03;;
15645;SDS011;7922;43.622;1.476;2022-12-11T03:22:36;34.00;;;23.10;;
15645;SDS011;7922;43.622;1.476;2022-12-11T03:25:39;30.53;;;22.20;;
15645;SDS011;7922;43.622;1.476;2022-12-11T03:28:15;29.43;;;22.13;;
15645;SDS011;7922;43.622;1.476;2022-12-11T03:30:43;30.13;;;22.20;;
15645;SDS011;7922;43.622;1.476;2022-12-11T03:33:10;29.77;;;21.93;;
15645;SDS011;7922;43.622;1.476;2022-12-11T03:35:47;29.13;;;21.97;;
15645;SDS011;7922;43.622;1.476;2022-12-11T03:38:17;31.60;;;22.60;;
15645;SDS011;7922;43.622;1.476;2022-12-11T03:40:46;35.67;;;22.47;;
15645;SDS011;7922;43.622;1.476;2022-12-11T03:43:13;32.07;;;22.50;;
15645;SDS011;7922;43.622;1.476;2022-12-11T03:45:40;29.10;;;20.73;;
15645;SDS011;7922;43.622;1.476;2022-12-11T03:48:06;31.60;;;22.17;;
15645;SDS011;7922;43.622;1.476;2022-12-11T03:50:33;31.13;;;22.27;;
15645;SDS011;7922;43.622;1.476;2022-12-11T03:52:58;30.97;;;21.83;;
15645;SDS011;7922;43.622;1.476;2022-12-11T03:55:25;34.53;;;23.57;;
15645;SDS011;7922;43.622;1.476;2022-12-11T03:57:50;31.67;;;23.33;;
15645;SDS011;7922;43.622;1.476;2022-12-11T04:00:17;33.07;;;23.77;;
15645;SDS011;7922;43.622;1.476;2022-12-11T04:02:43;34.67;;;22.53;;
15645;SDS011;7922;43.622;1.476;2022-12-11T04:05:10;32.03;;;23.17;;
15645;SDS011;7922;43.622;1.476;2022-12-11T04:07:35;33.00;;;22.07;;
15645;SDS011;7922;43.622;1.476;2022-12-11T04:10:01;32.80;;;22.40;;
15645;SDS011;7922;43.622;1.476;2022-12-11T04:12:28;33.23;;;22.83;;
15645;SDS011;7922;43.622;1.476;2022-12-11T04:14:53;35.10;;;23.17;;
15645;SDS011;7922;43.622;1.476;2022-12-11T04:17:18;32.93;;;22.17;;
15645;SDS011;7922;43.622;1.476;2022-12-11T04:19:44;34.93;;;23.77;;
15645;SDS011;7922;43.622;1.476;2022-12-11T04:22:10;34.17;;;22.57;;
15645;SDS011;7922;43.622;1.476;2022-12-11T04:24:36;34.00;;;22.57;;
15645;SDS011;7922;43.622;1.476;2022-12-11T04:27:01;30.47;;;22.77;;
15645;SDS011;7922;43.622;1.476;2022-12-11T04:29:26;29.93;;;20.63;;
15645;SDS011;7922;43.622;1.476;2022-12-11T04:31:52;32.80;;;22.20;;
15645;SDS011;7922;43.622;1.476;2022-12-11T04:34:17;36.00;;;23.33;;
15645;SDS011;7922;43.622;1.476;2022-12-11T04:36:42;30.37;;;22.47;;
15645;SDS011;7922;43.622;1.476;2022-12-11T04:39:08;34.57;;;22.30;;
15645;SDS011;7922;43.622;1.476;2022-12-11T04:41:33;32.97;;;22.63;;
15645;SDS011;7922;43.622;1.476;2022-12-11T04:43:59;34.63;;;22.60;;
15645;SDS011;7922;43.622;1.476;2022-12-11T04:46:24;33.87;;;22.23;;
15645;SDS011;7922;43.622;1.476;2022-12-11T04:48:49;28.93;;;21.97;;
15645;SDS011;7922;43.622;1.476;2022-12-11T04:51:16;29.93;;;23.40;;
15645;SDS011;7922;43.622;1.476;2022-12-11T04:53:41;36.63;;;24.03;;
15645;SDS011;7922;43.622;1.476;2022-12-11T04:56:07;33.63;;;22.37;;
15645;SDS011;7922;43.622;1.476;2022-12-11T04:58:35;36.93;;;23.77;;
15645;SDS011;7922;43.622;1.476;2022-12-11T05:01:05;32.70;;;23.37;;
15645;SDS011;7922;43.622;1.476;2022-12-11T05:03:37;34.27;;;22.70;;
15645;SDS011;7922;43.622;1.476;2022-12-11T05:06:03;35.47;;;23.50;;
15645;SDS011;7922;43.622;1.476;2022-12-11T05:08:28;33.07;;;23.23;;
15645;SDS011;7922;43.622;1.476;2022-12-11T05:10:54;36.23;;;24.93;;
15645;SDS011;7922;43.622;1.476;2022-12-11T05:13:23;35.20;;;23.90;;
15645;SDS011;7922;43.622;1.476;2022-12-11T05:15:49;36.87;;;24.60;;
15645;SDS011;7922;43.622;1.476;2022-12-11T05:18:14;35.77;;;24.33;;
15645;SDS011;7922;43.622;1.476;2022-12-11T05:20:39;36.60;;;24.63;;
15645;SDS011;7922;43.622;1.476;2022-12-11T05:23:05;36.37;;;25.10;;
15645;SDS011;7922;43.622;1.476;2022-12-11T05:25:30;34.67;;;23.87;;
15645;SDS011;7922;43.622;1.476;2022-12-11T05:27:55;34.57;;;23.33;;
15645;SDS011;7922;43.622;1.476;2022-12-11T05:30:21;35.43;;;24.47;;
15645;SDS011;7922;43.622;1.476;2022-12-11T05:32:46;34.77;;;24.27;;
15645;SDS011;7922;43.622;1.476;2022-12-11T05:35:11;32.80;;;22.80;;
15645;SDS011;7922;43.622;1.476;2022-12-11T05:37:36;33.63;;;22.67;;
15645;SDS011;7922;43.622;1.476;2022-12-11T05:40:02;35.83;;;23.23;;
15645;SDS011;7922;43.622;1.476;2022-12-11T05:42:28;35.10;;;23.93;;
15645;SDS011;7922;43.622;1.476;2022-12-11T05:44:53;38.40;;;24.03;;
15645;SDS011;7922;43.622;1.476;2022-12-11T05:47:18;35.03;;;24.50;;
15645;SDS011;7922;43.622;1.476;2022-12-11T05:49:43;33.87;;;23.83;;
15645;SDS011;7922;43.622;1.476;2022-12-11T05:52:09;36.73;;;23.70;;
15645;SDS011;7922;43.622;1.476;2022-12-11T05:54:34;33.73;;;23.47;;
15645;SDS011;7922;43.622;1.476;2022-12-11T05:56:59;28.90;;;21.87;;
15645;SDS011;7922;43.622;1.476;2022-12-11T05:59:24;35.37;;;23.47;;
15645;SDS011;7922;43.622;1.476;2022-12-11T06:01:50;30.90;;;23.37;;
15645;SDS011;7922;43.622;1.476;2022-12-11T06:04:15;31.33;;;21.77;;
15645;SDS011;7922;43.622;1.476;2022-12-11T06:06:40;33.73;;;23.03;;
15645;SDS011;7922;43.622;1.476;2022-12-11T06:09:06;33.77;;;23.23;;
15645;SDS011;7922;43.622;1.476;2022-12-11T06:11:31;33.93;;;23.60;;
15645;SDS011;7922;43.622;1.476;2022-12-11T06:13:58;31.23;;;23.63;;
15645;SDS011;7922;43.622;1.476;2022-12-11T06:16:24;31.47;;;22.10;;
15645;SDS011;7922;43.622;1.476;2022-12-11T06:18:49;33.10;;;22.17;;
15645;SDS011;7922;43.622;1.476;2022-12-11T06:21:16;30.73;;;21.83;;
15645;SDS011;7922;43.622;1.476;2022-12-11T06:23:46;31.77;;;21.70;;
15645;SDS011;7922;43.622;1.476;2022-12-11T06:26:12;30.67;;;21.60;;
15645;SDS011;7922;43.622;1.476;2022-12-11T06:28:39;35.33;;;22.77;;
15645;SDS011;7922;43.622;1.476;2022-12-11T06:31:04;32.70;;;22.40;;
15645;SDS011;7922;43.622;1.476;2022-12-11T06:33:30;33.50;;;21.47;;
15645;SDS011;7922;43.622;1.476;2022-12-11T06:35:55;31.73;;;21.37;;
15645;SDS011;7922;43.622;1.476;2022-12-11T06:38:25;36.37;;;22.97;;
15645;SDS011;7922;43.622;1.476;2022-12-11T06:40:54;30.97;;;20.77;;
15645;SDS011;7922;43.622;1.476;2022-12-11T06:43:20;32.17;;;23.93;;
15645;SDS011;7922;43.622;1.476;2022-12-11T06:45:45;30.87;;;21.77;;
15645;SDS011;7922;43.622;1.476;2022-12-11T06:48:10;31.50;;;21.97;;
15645;SDS011;7922;43.622;1.476;2022-12-11T06:50:36;33.07;;;22.30;;
15645;SDS011;7922;43.622;1.476;2022-12-11T06:53:02;33.33;;;22.47;;
15645;SDS011;7922;43.622;1.476;2022-12-11T06:55:27;33.77;;;21.43;;
15645;SDS011;7922;43.622;1.476;2022-12-11T06:57:52;36.40;;;23.90;;
15645;SDS011;7922;43.622;1.476;2022-12-11T07:00:18;36.00;;;23.60;;
15645;SDS011;7922;43.622;1.476;2022-12-11T07:02:43;35.83;;;23.90;;
15645;SDS011;7922;43.622;1.476;2022-12-11T07:05:08;37.27;;;26.87;;
15645;SDS011;7922;43.622;1.476;2022-12-11T07:07:34;41.63;;;28.40;;
15645;SDS011;7922;43.622;1.476;2022-12-11T07:09:59;38.97;;;27.03;;
15645;SDS011;7922;43.622;1.476;2022-12-11T07:12:24;33.03;;;23.23;;
15645;SDS011;7922;43.622;1.476;2022-12-11T07:14:50;29.33;;;21.43;;
15645;SDS011;7922;43.622;1.476;2022-12-11T07:17:15;27.63;;;20.57;;
15645;SDS011;7922;43.622;1.476;2022-12-11T07:19:40;31.60;;;22.20;;
15645;SDS011;7922;43.622;1.476;2022-12-11T07:22:05;32.50;;;21.40;;
15645;SDS011;7922;43.622;1.476;2022-12-11T07:24:31;30.63;;;21.57;;
15645;SDS011;7922;43.622;1.476;2022-12-11T07:26:56;28.63;;;20.30;;
15645;SDS011;7922;43.622;1.476;2022-12-11T07:29:21;31.00;;;19.90;;
15645;SDS011;7922;43.622;1.476;2022-12-11T07:31:47;29.83;;;20.93;;
15645;SDS011;7922;43.622;1.476;2022-12-11T07:34:12;30.87;;;21.47;;
15645;SDS011;7922;43.622;1.476;2022-12-11T07:36:37;26.67;;;19.47;;
15645;SDS011;7922;43.622;1.476;2022-12-11T07:39:03;28.27;;;20.60;;
15645;SDS011;7922;43.622;1.476;2022-12-11T07:41:28;27.17;;;19.10;;
15645;SDS011;7922;43.622;1.476;2022-12-11T07:43:54;31.20;;;20.43;;
15645;SDS011;7922;43.622;1.476;2022-12-11T07:46:21;31.90;;;20.03;;
15645;SDS011;7922;43.622;1.476;2022-12-11T07:48:48;28.20;;;18.50;;
15645;SDS011;7922;43.622;1.476;2022-12-11T07:53:39;29.20;;;19.50;;
15645;SDS011;7922;43.622;1.476;2022-12-11T07:56:05;25.43;;;19.00;;
15645;SDS011;7922;43.622;1.476;2022-12-11T07:58:31;28.03;;;20.23;;
15645;SDS011;7922;43.622;1.476;2022-12-11T08:00:56;43.17;;;27.40;;
15645;SDS011;7922;43.622;1.476;2022-12-11T08:03:21;25.47;;;18.57;;
15645;SDS011;7922;43.622;1.476;2022-12-11T08:05:47;23.83;;;18.43;;
15645;SDS011;7922;43.622;1.476;2022-12-11T08:08:13;27.80;;;18.77;;
15645;SDS011;7922;43.622;1.476;2022-12-11T08:10:38;27.73;;;20.50;;
15645;SDS011;7922;43.622;1.476;2022-12-11T08:13:04;25.20;;;18.73;;
15645;SDS011;7922;43.622;1.476;2022-12-11T08:15:29;21.90;;;17.80;;
15645;SDS011;7922;43.622;1.476;2022-12-11T08:17:54;23.33;;;16.83;;
15645;SDS011;7922;43.622;1.476;2022-12-11T08:20:19;22.47;;;17.27;;
15645;SDS011;7922;43.622;1.476;2022-12-11T08:22:45;32.57;;;24.90;;
15645;SDS011;7922;43.622;1.476;2022-12-11T08:25:10;25.57;;;20.37;;
15645;SDS011;7922;43.622;1.476;2022-12-11T08:27:35;18.13;;;14.40;;
15645;SDS011;7922;43.622;1.476;2022-12-11T08:30:00;21.80;;;15.60;;
15645;SDS011;7922;43.622;1.476;2022-12-11T08:32:26;20.10;;;13.17;;
15645;SDS011;7922;43.622;1.476;2022-12-11T08:34:51;19.57;;;13.33;;
15645;SDS011;7922;43.622;1.476;2022-12-11T08:37:16;23.90;;;18.93;;
15645;SDS011;7922;43.622;1.476;2022-12-11T08:39:41;25.37;;;20.97;;
15645;SDS011;7922;43.622;1.476;2022-12-11T08:42:07;19.60;;;13.30;;
15645;SDS011;7922;43.622;1.476;2022-12-11T08:44:32;17.77;;;12.93;;
15645;SDS011;7922;43.622;1.476;2022-12-11T08:46:57;17.80;;;12.60;;
15645;SDS011;7922;43.622;1.476;2022-12-11T08:49:22;17.43;;;13.40;;
15645;SDS011;7922;43.622;1.476;2022-12-11T08:51:48;17.43;;;13.47;;
15645;SDS011;7922;43.622;1.476;2022-12-11T08:54:13;19.97;;;14.10;;
15645;SDS011;7922;43.622;1.476;2022-12-11T08:56:38;17.23;;;14.47;;
15645;SDS011;7922;43.622;1.476;2022-12-11T08:59:04;21.83;;;16.07;;
15645;SDS011;7922;43.622;1.476;2022-12-11T09:01:29;18.00;;;13.97;;
15645;SDS011;7922;43.622;1.476;2022-12-11T09:03:54;18.50;;;13.93;;
15645;SDS011;7922;43.622;1.476;2022-12-11T09:06:21;17.60;;;12.90;;
15645;SDS011;7922;43.622;1.476;2022-12-11T09:08:49;18.50;;;13.07;;
15645;SDS011;7922;43.622;1.476;2022-12-11T09:11:17;21.73;;;15.23;;
15645;SDS011;7922;43.622;1.476;2022-12-11T09:13:46;20.00;;;14.77;;
15645;SDS011;7922;43.622;1.476;2022-12-11T09:16:13;19.30;;;14.37;;
15645;SDS011;7922;43.622;1.476;2022-12-11T09:18:40;21.63;;;15.43;;
15645;SDS011;7922;43.622;1.476;2022-12-11T09:21:06;24.23;;;16.20;;
15645;SDS011;7922;43.622;1.476;2022-12-11T09:23:35;24.30;;;15.50;;
15645;SDS011;7922;43.622;1.476;2022-12-11T09:26:04;20.50;;;15.87;;
15645;SDS011;7922;43.622;1.476;2022-12-11T09:28:33;24.17;;;16.93;;
15645;SDS011;7922;43.622;1.476;2022-12-11T09:30:59;27.60;;;17.23;;
15645;SDS011;7922;43.622;1.476;2022-12-11T09:33:24;27.90;;;18.17;;
15645;SDS011;7922;43.622;1.476;2022-12-11T09:35:57;22.33;;;16.63;;
15645;SDS011;7922;43.622;1.476;2022-12-11T09:38:23;22.87;;;16.30;;
15645;SDS011;7922;43.622;1.476;2022-12-11T09:40:48;22.53;;;15.37;;
15645;SDS011;7922;43.622;1.476;2022-12-11T09:43:16;19.53;;;15.20;;
15645;SDS011;7922;43.622;1.476;2022-12-11T09:45:46;21.73;;;14.80;;
15645;SDS011;7922;43.622;1.476;2022-12-11T09:48:12;19.40;;;14.10;;
15645;SDS011;7922;43.622;1.476;2022-12-11T09:50:43;16.50;;;13.30;;
15645;SDS011;7922;43.622;1.476;2022-12-11T10:04:39;19.97;;;13.87;;
15645;SDS011;7922;43.622;1.476;2022-12-11T10:12:30;18.87;;;13.07;;
15645;SDS011;7922;43.622;1.476;2022-12-11T10:15:13;20.70;;;13.80;;
15645;SDS011;7922;43.622;1.476;2022-12-11T10:17:55;19.20;;;13.60;;
15645;SDS011;7922;43.622;1.476;2022-12-11T10:20:22;17.80;;;13.83;;
15645;SDS011;7922;43.622;1.476;2022-12-11T10:22:50;20.03;;;13.97;;
15645;SDS011;7922;43.622;1.476;2022-12-11T10:25:20;17.47;;;13.50;;
15645;SDS011;7922;43.622;1.476;2022-12-11T10:27:48;24.23;;;14.97;;
15645;SDS011;7922;43.622;1.476;2022-12-11T10:30:32;20.77;;;14.20;;
15645;SDS011;7922;43.622;1.476;2022-12-11T10:35:44;18.67;;;13.47;;
15645;SDS011;7922;43.622;1.476;2022-12-11T10:38:23;19.67;;;14.90;;
15645;SDS011;7922;43.622;1.476;2022-12-11T10:43:44;22.30;;;14.53;;
15645;SDS011;7922;43.622;1.476;2022-12-11T10:51:12;21.77;;;16.57;;
15645;SDS011;7922;43.622;1.476;2022-12-11T10:53:38;21.50;;;15.30;;
15645;SDS011;7922;43.622;1.476;2022-12-11T10:56:04;24.07;;;15.70;;
15645;SDS011;7922;43.622;1.476;2022-12-11T10:58:30;22.07;;;14.30;;
15645;SDS011;7922;43.622;1.476;2022-12-11T11:01:10;18.67;;;14.97;;
15645;SDS011;7922;43.622;1.476;2022-12-11T11:06:19;17.87;;;13.57;;
15645;SDS011;7922;43.622;1.476;2022-12-11T11:08:50;21.50;;;16.30;;
15645;SDS011;7922;43.622;1.476;2022-12-11T11:13:51;15.40;;;12.37;;
15645;SDS011;7922;43.622;1.476;2022-12-11T11:16:28;17.03;;;11.60;;
15645;SDS011;7922;43.622;1.476;2022-12-11T11:18:53;12.83;;;10.90;;
15645;SDS011;7922;43.622;1.476;2022-12-11T11:21:21;16.53;;;14.23;;
15645;SDS011;7922;43.622;1.476;2022-12-11T11:23:47;14.27;;;11.10;;
15645;SDS011;7922;43.622;1.476;2022-12-11T11:26:12;11.60;;;9.37;;
15645;SDS011;7922;43.622;1.476;2022-12-11T11:28:39;11.17;;;9.93;;
15645;SDS011;7922;43.622;1.476;2022-12-11T11:31:06;11.03;;;9.07;;
15645;SDS011;7922;43.622;1.476;2022-12-11T11:33:34;12.37;;;9.90;;
15645;SDS011;7922;43.622;1.476;2022-12-11T11:36:01;10.57;;;8.80;;
15645;SDS011;7922;43.622;1.476;2022-12-11T11:38:39;12.20;;;10.03;;
15645;SDS011;7922;43.622;1.476;2022-12-11T11:41:16;12.50;;;10.40;;
15645;SDS011;7922;43.622;1.476;2022-12-11T11:44:10;12.40;;;9.50;;
15645;SDS011;7922;43.622;1.476;2022-12-11T11:46:41;12.07;;;10.27;;
15645;SDS011;7922;43.622;1.476;2022-12-11T11:51:40;12.87;;;10.80;;
15645;SDS011;7922;43.622;1.476;2022-12-11T11:54:15;29.93;;;20.03;;
15645;SDS011;7922;43.622;1.476;2022-12-11T11:56:45;30.43;;;21.97;;
15645;SDS011;7922;43.622;1.476;2022-12-11T12:01:47;14.07;;;10.50;;
15645;SDS011;7922;43.622;1.476;2022-12-11T12:04:13;15.57;;;13.10;;
15645;SDS011;7922;43.622;1.476;2022-12-11T12:06:43;13.07;;;10.47;;
15645;SDS011;7922;43.622;1.476;2022-12-11T12:12:10;12.33;;;9.73;;
15645;SDS011;7922;43.622;1.476;2022-12-11T12:17:53;12.33;;;9.47;;
15645;SDS011;7922;43.622;1.476;2022-12-11T12:26:16;10.10;;;8.87;;
15645;SDS011;7922;43.622;1.476;2022-12-11T12:31:54;13.17;;;10.10;;
15645;SDS011;7922;43.622;1.476;2022-12-11T12:42:41;14.83;;;8.47;;
15645;SDS011;7922;43.622;1.476;2022-12-11T12:45:50;13.73;;;8.80;;
15645;SDS011;7922;43.622;1.476;2022-12-11T12:48:23;10.30;;;8.30;;
15645;SDS011;7922;43.622;1.476;2022-12-11T12:50:49;9.57;;;8.47;;
15645;SDS011;7922;43.622;1.476;2022-12-11T12:53:16;10.67;;;8.70;;
15645;SDS011;7922;43.622;1.476;2022-12-11T12:55:44;12.40;;;8.13;;
15645;SDS011;7922;43.622;1.476;2022-12-11T12:58:23;11.27;;;9.80;;
15645;SDS011;7922;43.622;1.476;2022-12-11T13:00:50;14.33;;;11.33;;
15645;SDS011;7922;43.622;1.476;2022-12-11T13:03:17;13.10;;;9.03;;
15645;SDS011;7922;43.622;1.476;2022-12-11T13:05:53;12.47;;;9.40;;
15645;SDS011;7922;43.622;1.476;2022-12-11T13:08:27;11.17;;;8.87;;
15645;SDS011;7922;43.622;1.476;2022-12-11T13:11:01;11.07;;;8.77;;
15645;SDS011;7922;43.622;1.476;2022-12-11T13:13:36;12.30;;;10.93;;
15645;SDS011;7922;43.622;1.476;2022-12-11T13:18:33;11.73;;;9.87;;
15645;SDS011;7922;43.622;1.476;2022-12-11T13:21:01;11.00;;;8.77;;
15645;SDS011;7922;43.622;1.476;2022-12-11T13:23:45;11.03;;;9.27;;
15645;SDS011;7922;43.622;1.476;2022-12-11T13:26:11;11.00;;;8.87;;
15645;SDS011;7922;43.622;1.476;2022-12-11T13:31:05;12.70;;;10.53;;
15645;SDS011;7922;43.622;1.476;2022-12-11T13:33:31;13.60;;;10.17;;
15645;SDS011;7922;43.622;1.476;2022-12-11T13:38:34;12.13;;;9.83;;
15645;SDS011;7922;43.622;1.476;2022-12-11T13:41:01;12.20;;;9.77;;
15645;SDS011;7922;43.622;1.476;2022-12-11T13:43:28;11.10;;;8.50;;
15645;SDS011;7922;43.622;1.476;2022-12-11T13:45:56;9.43;;;8.43;;
15645;SDS011;7922;43.622;1.476;2022-12-11T13:51:17;11.63;;;10.37;;
15645;SDS011;7922;43.622;1.476;2022-12-11T13:53:44;13.20;;;10.23;;
15645;SDS011;7922;43.622;1.476;2022-12-11T13:56:17;12.10;;;9.57;;
15645;SDS011;7922;43.622;1.476;2022-12-11T13:58:43;13.07;;;10.47;;
15645;SDS011;7922;43.622;1.476;2022-12-11T14:06:36;12.57;;;9.90;;
15645;SDS011;7922;43.622;1.476;2022-12-11T14:09:03;12.83;;;10.40;;
15645;SDS011;7922;43.622;1.476;2022-12-11T14:11:37;10.83;;;9.73;;
15645;SDS011;7922;43.622;1.476;2022-12-11T14:14:05;11.67;;;9.63;;
15645;SDS011;7922;43.622;1.476;2022-12-11T14:16:38;9.47;;;8.47;;
15645;SDS011;7922;43.622;1.476;2022-12-11T14:19:04;11.90;;;8.97;;
15645;SDS011;7922;43.622;1.476;2022-12-11T14:21:30;11.83;;;9.30;;
15645;SDS011;7922;43.622;1.476;2022-12-11T14:23:56;10.10;;;8.57;;
15645;SDS011;7922;43.622;1.476;2022-12-11T14:26:27;10.80;;;9.70;;
15645;SDS011;7922;43.622;1.476;2022-12-11T14:28:56;11.47;;;9.53;;
15645;SDS011;7922;43.622;1.476;2022-12-11T14:31:42;11.57;;;9.10;;
15645;SDS011;7922;43.622;1.476;2022-12-11T14:34:11;10.70;;;8.67;;
15645;SDS011;7922;43.622;1.476;2022-12-11T14:36:41;10.47;;;7.93;;
15645;SDS011;7922;43.622;1.476;2022-12-11T14:42:16;9.97;;;8.30;;
15645;SDS011;7922;43.622;1.476;2022-12-11T14:44:48;9.67;;;7.70;;
15645;SDS011;7922;43.622;1.476;2022-12-11T14:47:19;10.40;;;8.33;;
15645;SDS011;7922;43.622;1.476;2022-12-11T14:52:21;12.17;;;8.80;;
15645;SDS011;7922;43.622;1.476;2022-12-11T14:54:52;10.33;;;8.40;;
15645;SDS011;7922;43.622;1.476;2022-12-11T14:57:20;11.10;;;8.63;;
15645;SDS011;7922;43.622;1.476;2022-12-11T14:59:48;8.57;;;7.30;;
15645;SDS011;7922;43.622;1.476;2022-12-11T15:02:28;8.20;;;6.17;;
15645;SDS011;7922;43.622;1.476;2022-12-11T15:07:30;10.67;;;8.37;;
15645;SDS011;7922;43.622;1.476;2022-12-11T15:09:55;9.00;;;7.47;;
15645;SDS011;7922;43.622;1.476;2022-12-11T15:12:20;9.27;;;7.50;;
15645;SDS011;7922;43.622;1.476;2022-12-11T15:14:53;8.27;;;7.40;;
15645;SDS011;7922;43.622;1.476;2022-12-11T15:17:21;11.33;;;8.03;;
15645;SDS011;7922;43.622;1.476;2022-12-11T15:20:01;12.43;;;8.90;;
15645;SDS011;7922;43.622;1.476;2022-12-11T15:22:31;11.53;;;9.40;;
15645;SDS011;7922;43.622;1.476;2022-12-11T15:24:56;12.47;;;9.83;;
15645;SDS011;7922;43.622;1.476;2022-12-11T15:27:43;13.80;;;10.67;;
15645;SDS011;7922;43.622;1.476;2022-12-11T15:30:14;13.33;;;10.57;;
15645;SDS011;7922;43.622;1.476;2022-12-11T15:32:43;14.77;;;10.63;;
15645;SDS011;7922;43.622;1.476;2022-12-11T15:35:22;14.03;;;10.93;;
15645;SDS011;7922;43.622;1.476;2022-12-11T15:37:53;18.27;;;12.00;;
15645;SDS011;7922;43.622;1.476;2022-12-11T15:40:19;14.23;;;11.67;;
15645;SDS011;7922;43.622;1.476;2022-12-11T15:42:44;13.30;;;11.50;;
15645;SDS011;7922;43.622;1.476;2022-12-11T15:45:14;17.20;;;12.03;;
15645;SDS011;7922;43.622;1.476;2022-12-11T15:47:41;17.73;;;13.10;;
15645;SDS011;7922;43.622;1.476;2022-12-11T15:50:18;19.87;;;15.03;;
15645;SDS011;7922;43.622;1.476;2022-12-11T15:52:45;17.90;;;14.23;;
15645;SDS011;7922;43.622;1.476;2022-12-11T15:55:11;20.80;;;15.73;;
15645;SDS011;7922;43.622;1.476;2022-12-11T15:57:36;20.63;;;16.23;;
15645;SDS011;7922;43.622;1.476;2022-12-11T16:00:09;23.93;;;17.67;;
15645;SDS011;7922;43.622;1.476;2022-12-11T16:02:38;24.07;;;18.03;;
15645;SDS011;7922;43.622;1.476;2022-12-11T16:05:03;26.70;;;21.20;;
15645;SDS011;7922;43.622;1.476;2022-12-11T16:07:28;23.10;;;18.90;;
15645;SDS011;7922;43.622;1.476;2022-12-11T16:09:54;18.83;;;16.13;;
15645;SDS011;7922;43.622;1.476;2022-12-11T16:12:19;18.70;;;15.10;;
15645;SDS011;7922;43.622;1.476;2022-12-11T16:14:44;21.83;;;18.00;;
15645;SDS011;7922;43.622;1.476;2022-12-11T16:17:10;20.80;;;16.37;;
15645;SDS011;7922;43.622;1.476;2022-12-11T16:19:37;22.80;;;16.57;;
15645;SDS011;7922;43.622;1.476;2022-12-11T16:22:04;21.13;;;17.80;;
15645;SDS011;7922;43.622;1.476;2022-12-11T16:24:30;28.50;;;20.87;;
15645;SDS011;7922;43.622;1.476;2022-12-11T16:26:56;25.97;;;19.37;;